createdAt,value
2023-05-15T00:02:17.295Z,16.31
2023-05-15T00:05:03.832Z,16.37
2023-05-15T00:07:49.997Z,16.25
2023-05-15T00:10:35.981Z,16.34
2023-05-15T00:13:22.027Z,16.32
2023-05-15T00:16:09.482Z,16.37
2023-05-15T00:18:55.639Z,16.35
2023-05-15T00:21:41.606Z,16.39
2023-05-15T00:24:30.686Z,16.38
2023-05-15T00:27:16.716Z,16.45
2023-05-15T00:30:02.447Z,16.47
2023-05-15T00:32:48.273Z,16.48
2023-05-15T00:35:36.626Z,16.47
2023-05-15T00:38:22.383Z,16.45
2023-05-15T00:41:10.394Z,16.33
2023-05-15T00:43:56.755Z,16.42
2023-05-15T00:46:43.393Z,16.38
2023-05-15T00:49:30.070Z,16.38
2023-05-15T00:52:15.939Z,16.38
2023-05-15T00:55:02.089Z,16.41
2023-05-15T00:57:48.198Z,16.39
2023-05-15T01:00:34.642Z,16.38
2023-05-15T01:03:21.659Z,16.40
2023-05-15T01:06:07.742Z,16.32
2023-05-15T01:08:55.224Z,16.37
2023-05-15T01:11:42.506Z,16.38
2023-05-15T01:14:29.073Z,16.33
2023-05-15T01:17:14.841Z,16.38
2023-05-15T01:20:01.625Z,16.39
2023-05-15T01:23:09.122Z,16.36
2023-05-15T01:26:13.334Z,16.34
2023-05-15T01:29:04.556Z,16.32
2023-05-15T01:31:57.011Z,16.31
2023-05-15T01:34:58.755Z,16.21
2023-05-15T01:37:46.416Z,16.27
2023-05-15T01:40:32.325Z,16.22
2023-05-15T01:43:21.213Z,16.27
2023-05-15T01:46:07.632Z,16.23
2023-05-15T01:48:55.071Z,16.22
2023-05-15T01:51:42.697Z,16.26
2023-05-15T01:54:29.864Z,16.23
2023-05-15T01:57:16.444Z,16.24
2023-05-15T02:00:03.511Z,16.27
2023-05-15T02:03:09.367Z,16.24
2023-05-15T02:05:56.731Z,16.24
2023-05-15T02:08:43.305Z,16.20
2023-05-15T02:11:29.637Z,16.20
2023-05-15T02:14:17.438Z,16.19
2023-05-15T02:17:03.458Z,16.07
2023-05-15T02:19:49.644Z,16.11
2023-05-15T02:22:36.269Z,16.13
2023-05-15T02:25:33.172Z,16.08
2023-05-15T02:28:32.691Z,16.07
2023-05-15T02:31:27.516Z,16.09
2023-05-15T02:34:30.415Z,16.10
2023-05-15T02:37:18.428Z,16.06
2023-05-15T02:40:07.157Z,16.07
2023-05-15T02:42:53.815Z,16.13
2023-05-15T02:45:41.163Z,16.13
2023-05-15T02:48:27.555Z,16.11
2023-05-15T02:51:14.220Z,16.12
2023-05-15T02:54:01.745Z,16.20
2023-05-15T02:56:47.936Z,16.21
2023-05-15T02:59:35.023Z,16.20
2023-05-15T03:02:20.861Z,16.25
2023-05-15T03:05:07.328Z,16.24
2023-05-15T03:07:53.139Z,16.26
2023-05-15T03:10:39.291Z,16.25
2023-05-15T03:13:25.055Z,16.26
2023-05-15T03:16:10.808Z,16.27
2023-05-15T03:18:56.918Z,16.23
2023-05-15T03:21:42.826Z,16.28
2023-05-15T03:24:28.472Z,16.25
2023-05-15T03:27:14.355Z,16.24
2023-05-15T03:30:00.566Z,16.26
2023-05-15T03:32:46.785Z,16.21
2023-05-15T03:35:32.992Z,16.26
2023-05-15T03:38:20.084Z,16.22
2023-05-15T03:41:06.162Z,16.23
2023-05-15T03:43:51.950Z,16.20
2023-05-15T03:46:37.666Z,16.24
2023-05-15T03:49:23.506Z,16.26
2023-05-15T03:52:09.929Z,16.25
2023-05-15T03:54:55.836Z,16.24
2023-05-15T03:57:41.984Z,16.26
2023-05-15T04:00:28.086Z,16.33
2023-05-15T04:03:14.138Z,16.32
2023-05-15T04:06:00.355Z,16.34
2023-05-15T04:08:46.291Z,16.31
2023-05-15T04:11:34.900Z,16.34
2023-05-15T04:14:21.003Z,16.32
2023-05-15T04:17:06.771Z,16.34
2023-05-15T04:19:52.545Z,16.39
2023-05-15T04:22:38.647Z,16.38
2023-05-15T04:25:24.803Z,16.42
2023-05-15T04:28:11.114Z,16.44
2023-05-15T04:30:58.676Z,16.41
2023-05-15T04:33:44.485Z,16.36
2023-05-15T04:36:30.315Z,16.41
2023-05-15T04:39:16.153Z,16.44
2023-05-15T04:42:02.475Z,16.43
2023-05-15T04:44:48.496Z,16.45
2023-05-15T04:47:34.332Z,16.42
2023-05-15T04:50:20.443Z,16.40
2023-05-15T04:53:06.588Z,16.41
2023-05-15T04:55:52.287Z,16.43
2023-05-15T04:58:38.467Z,16.42
2023-05-15T05:01:24.329Z,16.44
2023-05-15T05:04:10.361Z,16.37
2023-05-15T05:06:56.137Z,16.42
2023-05-15T05:09:42.264Z,16.36
2023-05-15T05:12:28.330Z,16.41
2023-05-15T05:15:14.534Z,16.44
2023-05-15T05:18:00.659Z,16.42
2023-05-15T05:20:47.025Z,16.40
2023-05-15T05:23:33.133Z,16.38
2023-05-15T05:26:18.869Z,16.41
2023-05-15T05:29:04.786Z,16.39
2023-05-15T05:31:51.477Z,16.41
2023-05-15T05:34:37.802Z,16.41
2023-05-15T05:37:24.903Z,16.41
2023-05-15T05:40:11.061Z,16.41
2023-05-15T05:43:03.741Z,16.45
2023-05-15T05:45:49.718Z,16.40
2023-05-15T05:48:36.648Z,16.51
2023-05-15T05:51:22.382Z,16.46
2023-05-15T05:54:08.128Z,16.51
2023-05-15T05:56:54.184Z,16.54
2023-05-15T05:59:40.050Z,16.52
2023-05-15T06:02:26.155Z,16.59
2023-05-15T06:05:12.230Z,16.53
2023-05-15T06:07:58.229Z,16.57
2023-05-15T06:10:44.953Z,16.61
2023-05-15T06:13:31.066Z,16.65
2023-05-15T06:16:16.807Z,16.60
2023-05-15T06:19:02.868Z,16.63
2023-05-15T06:21:48.725Z,16.62
2023-05-15T06:24:34.735Z,16.63
2023-05-15T06:27:21.101Z,16.64
2023-05-15T06:30:08.255Z,16.65
2023-05-15T06:32:55.820Z,16.56
2023-05-15T06:35:42.608Z,16.64
2023-05-15T06:38:28.638Z,16.62
2023-05-15T06:41:14.529Z,16.60
2023-05-15T06:44:00.579Z,16.56
2023-05-15T06:46:46.468Z,16.58
2023-05-15T06:49:32.417Z,16.57
2023-05-15T06:52:18.157Z,16.54
2023-05-15T06:55:04.125Z,16.48
2023-05-15T06:57:50.785Z,16.54
2023-05-15T07:00:36.628Z,16.50
2023-05-15T07:03:22.554Z,16.52
2023-05-15T07:06:08.416Z,16.50
2023-05-15T07:08:54.574Z,16.51
2023-05-15T07:11:42.241Z,16.53
2023-05-15T07:14:28.230Z,16.50
2023-05-15T07:17:14.020Z,16.49
2023-05-15T07:20:00.223Z,16.56
2023-05-15T07:22:55.620Z,16.52
2023-05-15T07:25:45.938Z,16.58
2023-05-15T07:28:32.292Z,16.54
2023-05-15T07:31:18.189Z,16.62
2023-05-15T07:34:04.049Z,16.64
2023-05-15T07:36:50.179Z,16.64
2023-05-15T07:39:36.004Z,16.70
2023-05-15T07:42:21.909Z,16.69
2023-05-15T07:45:08.432Z,16.73
2023-05-15T07:47:54.779Z,16.80
2023-05-15T07:50:40.992Z,16.93
2023-05-15T07:53:27.299Z,16.90
2023-05-15T07:56:13.253Z,17.02
2023-05-15T07:58:59.252Z,17.12
2023-05-15T08:01:45.261Z,17.25
2023-05-15T08:04:31.229Z,17.29
2023-05-15T08:07:17.328Z,17.37
2023-05-15T08:10:06.272Z,17.51
2023-05-15T08:12:52.456Z,17.45
2023-05-15T08:15:38.682Z,17.66
2023-05-15T08:18:24.576Z,17.64
2023-05-15T08:21:11.195Z,17.77
2023-05-15T08:23:57.428Z,17.83
2023-05-15T08:26:43.517Z,17.85
2023-05-15T08:29:29.582Z,17.98
2023-05-15T08:32:16.456Z,18.01
2023-05-15T08:35:02.281Z,17.99
2023-05-15T08:37:48.235Z,18.05
2023-05-15T08:40:39.003Z,18.10
2023-05-15T08:43:27.426Z,18.06
2023-05-15T08:46:13.584Z,18.08
2023-05-15T08:49:03.628Z,18.12
2023-05-15T08:51:49.677Z,18.17
2023-05-15T08:54:36.392Z,18.19
2023-05-15T08:57:22.847Z,18.15
2023-05-15T09:00:09.522Z,18.17
2023-05-15T09:02:55.378Z,18.14
2023-05-15T09:05:41.659Z,18.17
2023-05-15T09:08:29.135Z,18.21
2023-05-15T09:11:16.003Z,18.28
2023-05-15T09:14:01.857Z,18.32
2023-05-15T09:16:51.111Z,18.36
2023-05-15T09:19:39.199Z,18.40
2023-05-15T09:22:26.107Z,18.45
2023-05-15T09:25:13.401Z,18.54
2023-05-15T09:28:00.048Z,18.58
2023-05-15T09:30:46.306Z,18.60
2023-05-15T09:33:39.129Z,18.75
2023-05-15T09:36:26.411Z,18.77
2023-05-15T09:39:12.471Z,18.87
2023-05-15T09:42:08.682Z,18.92
2023-05-15T09:44:54.173Z,18.99
2023-05-15T09:47:40.237Z,19.13
2023-05-15T09:50:37.606Z,19.21
2023-05-15T09:53:24.360Z,19.24
2023-05-15T09:56:14.219Z,19.30
2023-05-15T09:59:01.022Z,19.34
2023-05-15T10:01:47.329Z,19.51
2023-05-15T10:04:36.913Z,19.57
2023-05-15T10:07:38.570Z,19.59
2023-05-15T10:10:26.326Z,19.76
2023-05-15T10:13:12.515Z,19.79
2023-05-15T10:15:59.256Z,19.86
2023-05-15T10:18:45.807Z,19.92
2023-05-15T10:21:34.688Z,19.93
2023-05-15T10:24:21.559Z,20.04
2023-05-15T10:27:09.598Z,20.17
2023-05-15T10:29:59.492Z,20.22
2023-05-15T10:32:52.429Z,20.29
2023-05-15T10:35:42.811Z,20.39
2023-05-15T10:38:31.892Z,20.42
2023-05-15T10:41:18.336Z,20.47
2023-05-15T10:44:04.511Z,20.59
2023-05-15T10:46:50.732Z,20.68
2023-05-15T10:49:36.848Z,20.72
2023-05-15T10:52:22.995Z,20.85
2023-05-15T10:55:13.474Z,20.86
2023-05-15T10:57:59.752Z,20.95
2023-05-15T11:00:47.977Z,21.03
2023-05-15T11:03:47.894Z,21.22
2023-05-15T11:06:45.485Z,21.25
2023-05-15T11:09:36.203Z,21.39
2023-05-15T11:12:23.568Z,21.38
2023-05-15T11:15:09.387Z,21.52
2023-05-15T11:18:28.661Z,21.62
2023-05-15T11:21:16.613Z,21.71
2023-05-15T11:24:15.079Z,21.73
2023-05-15T11:27:38.949Z,21.75
2023-05-15T11:30:41.518Z,21.80
2023-05-15T11:33:33.522Z,21.82
2023-05-15T11:36:24.405Z,21.84
2023-05-15T11:39:11.990Z,21.85
2023-05-15T11:42:11.450Z,21.90
2023-05-15T11:44:57.553Z,21.94
2023-05-15T11:47:45.441Z,21.93
2023-05-15T11:50:33.676Z,22.05
2023-05-15T11:53:20.998Z,22.09
2023-05-15T11:56:07.432Z,22.14
2023-05-15T11:58:58.731Z,22.28
2023-05-15T12:01:48.500Z,22.37
2023-05-15T12:04:34.962Z,22.37
2023-05-15T12:07:20.818Z,22.55
2023-05-15T12:10:07.702Z,22.62
2023-05-15T12:12:53.553Z,22.71
2023-05-15T12:15:43.166Z,22.80
2023-05-15T12:18:31.944Z,22.88
2023-05-15T12:21:18.057Z,22.95
2023-05-15T12:24:08.138Z,23.00
2023-05-15T12:26:56.627Z,23.04
2023-05-15T12:29:43.943Z,23.11
2023-05-15T12:32:32.951Z,23.19
2023-05-15T12:35:19.293Z,23.22
2023-05-15T12:38:05.905Z,23.32
2023-05-15T12:57:14.486Z,23.29
2023-05-15T13:00:00.658Z,23.22
2023-05-15T13:02:48.843Z,23.16
2023-05-15T13:05:36.654Z,23.10
2023-05-15T13:08:22.880Z,23.00
2023-05-15T13:11:14.169Z,22.90
2023-05-15T13:14:00.720Z,22.82
2023-05-15T13:16:47.192Z,22.73
2023-05-15T13:19:33.288Z,22.63
2023-05-15T13:22:18.961Z,22.59
2023-05-15T13:25:05.407Z,22.52
2023-05-15T13:27:51.672Z,22.60
2023-05-15T13:30:41.548Z,22.57
2023-05-15T13:33:27.614Z,22.52
2023-05-15T13:36:19.602Z,22.50
2023-05-15T13:39:06.591Z,22.49
2023-05-15T13:41:52.525Z,22.43
2023-05-15T13:46:09.071Z,22.52
2023-05-15T13:48:55.259Z,22.53
2023-05-15T13:51:41.242Z,22.55
2023-05-15T13:54:26.953Z,22.56
2023-05-15T13:57:13.145Z,22.56
2023-05-15T14:00:31.228Z,22.58
2023-05-15T14:13:01.247Z,22.39
2023-05-15T14:15:48.076Z,22.30
2023-05-15T14:18:36.864Z,22.29
2023-05-15T14:21:23.250Z,22.22
2023-05-15T14:24:09.118Z,22.21
2023-05-15T14:26:55.233Z,22.19
2023-05-15T14:29:41.559Z,22.24
2023-05-15T14:32:27.700Z,22.34
2023-05-15T14:35:13.554Z,22.47
2023-05-15T14:37:59.845Z,22.58
2023-05-15T14:40:46.010Z,22.63
2023-05-15T14:43:31.863Z,22.68
2023-05-15T14:46:18.880Z,22.82
2023-05-15T14:49:05.475Z,23.08
2023-05-15T14:51:51.316Z,23.44
2023-05-15T14:56:52.536Z,24.03
2023-05-15T14:59:38.349Z,24.17
2023-05-15T15:02:24.220Z,24.23
2023-05-15T15:05:10.292Z,24.13
2023-05-15T15:08:05.886Z,24.05
2023-05-15T15:10:52.290Z,23.91
2023-05-15T15:13:38.541Z,23.77
2023-05-15T15:16:27.225Z,23.66
2023-05-15T15:19:13.753Z,23.52
2023-05-15T15:21:59.598Z,23.43
2023-05-15T15:24:45.694Z,23.32
2023-05-15T15:27:37.100Z,23.22
2023-05-15T15:30:25.268Z,23.14
2023-05-15T15:33:11.491Z,23.08
2023-05-15T15:35:57.571Z,23.02
2023-05-15T15:38:43.828Z,22.91
2023-05-15T15:41:33.124Z,22.87
2023-05-15T15:44:19.188Z,22.78
2023-05-15T15:47:05.148Z,22.70
2023-05-15T15:49:51.523Z,22.64
2023-05-15T15:52:37.502Z,22.58
2023-05-15T15:55:24.661Z,22.50
2023-05-15T15:58:10.579Z,22.42
2023-05-15T16:00:58.039Z,22.34
2023-05-15T16:03:44.001Z,22.28
2023-05-15T16:06:30.155Z,22.20
2023-05-15T16:09:19.146Z,22.11
2023-05-15T16:12:05.311Z,22.02
2023-05-15T16:14:51.398Z,21.91
2023-05-15T16:17:38.638Z,21.83
2023-05-15T16:20:25.030Z,21.79
2023-05-15T16:23:15.021Z,21.68
2023-05-15T16:26:02.436Z,21.60
2023-05-15T16:28:48.440Z,21.53
2023-05-15T16:31:34.530Z,21.49
2023-05-15T16:34:20.882Z,21.45
2023-05-15T16:37:06.875Z,21.41
2023-05-15T16:39:52.969Z,21.36
2023-05-15T16:42:39.709Z,21.30
2023-05-15T16:45:26.190Z,21.22
2023-05-15T16:48:12.459Z,21.20
2023-05-15T16:50:58.436Z,21.13
2023-05-15T16:53:44.765Z,21.10
2023-05-15T16:56:42.436Z,21.06
2023-05-15T16:59:34.662Z,20.95
2023-05-15T17:02:24.150Z,20.93
2023-05-15T17:05:10.981Z,20.87
2023-05-15T17:07:56.977Z,20.84
2023-05-15T17:10:42.996Z,20.80
2023-05-15T17:13:29.016Z,20.80
2023-05-15T17:16:14.952Z,20.75
2023-05-15T17:19:01.297Z,20.70
2023-05-15T17:21:47.065Z,20.66
2023-05-15T17:24:54.445Z,20.64
2023-05-15T17:27:41.656Z,20.57
2023-05-15T17:30:27.744Z,20.58
2023-05-15T17:33:13.706Z,20.56
2023-05-15T17:35:59.572Z,20.52
2023-05-15T17:38:45.199Z,20.47
2023-05-15T17:41:31.202Z,20.43
2023-05-15T17:44:17.355Z,20.36
2023-05-15T17:47:03.274Z,20.33
2023-05-15T17:49:49.636Z,20.31
2023-05-15T17:52:37.249Z,20.26
2023-05-15T17:55:24.311Z,20.26
2023-05-15T17:58:10.450Z,20.24
2023-05-15T18:00:57.436Z,20.23
2023-05-15T18:03:43.380Z,20.24
2023-05-15T18:06:29.289Z,20.23
2023-05-15T18:09:15.269Z,20.20
2023-05-15T18:12:01.384Z,20.20
2023-05-15T18:14:47.504Z,20.24
2023-05-15T18:17:33.303Z,20.22
2023-05-15T18:20:19.153Z,20.22
2023-05-15T18:23:04.921Z,20.21
2023-05-15T18:25:51.078Z,20.18
2023-05-15T18:28:37.303Z,20.17
2023-05-15T18:31:23.538Z,20.18
2023-05-15T18:34:09.744Z,20.15
2023-05-15T18:36:56.038Z,20.12
2023-05-15T18:39:44.416Z,20.10
2023-05-15T18:42:31.508Z,20.11
2023-05-15T18:45:17.654Z,20.12
2023-05-15T18:48:04.036Z,20.10
2023-05-15T18:51:16.265Z,20.11
2023-05-15T18:54:02.437Z,20.05
2023-05-15T18:56:48.477Z,20.06
2023-05-15T18:59:34.915Z,20.05
2023-05-15T19:02:30.646Z,20.06
2023-05-15T19:05:16.957Z,19.98
2023-05-15T19:08:04.041Z,20.03
2023-05-15T19:10:50.844Z,20.01
2023-05-15T19:13:36.850Z,19.96
2023-05-15T19:16:26.913Z,19.96
2023-05-15T19:19:13.413Z,19.93
2023-05-15T19:21:59.156Z,19.92
2023-05-15T19:24:45.075Z,19.86
2023-05-15T19:27:32.086Z,19.86
2023-05-15T19:30:18.372Z,19.83
2023-05-15T19:33:04.391Z,19.77
2023-05-15T19:35:50.950Z,19.76
2023-05-15T19:38:37.854Z,19.78
2023-05-15T19:41:24.240Z,19.74
2023-05-15T19:44:10.345Z,19.72
2023-05-15T19:46:56.538Z,19.72
2023-05-15T19:49:43.559Z,19.69
2023-05-15T19:52:29.913Z,19.70
2023-05-15T19:55:15.951Z,19.63
2023-05-15T19:58:01.934Z,19.61
2023-05-15T20:00:48.489Z,19.56
2023-05-15T20:03:35.126Z,19.53
2023-05-15T20:06:21.326Z,19.54
2023-05-15T20:09:07.409Z,19.47
2023-05-15T20:11:53.433Z,19.45
2023-05-15T20:14:39.381Z,19.38
2023-05-15T20:17:25.371Z,19.41
2023-05-15T20:20:12.321Z,19.35
2023-05-15T20:22:58.512Z,19.30
2023-05-15T20:25:44.536Z,19.30
2023-05-15T20:28:30.780Z,19.23
2023-05-15T20:31:16.649Z,19.17
2023-05-15T20:34:08.502Z,19.09
2023-05-15T20:36:54.992Z,19.03
2023-05-15T20:39:40.907Z,19.01
2023-05-15T20:42:29.281Z,18.96
2023-05-15T20:45:15.364Z,18.91
2023-05-15T20:48:01.633Z,18.91
2023-05-15T20:50:53.196Z,18.86
2023-05-15T20:53:39.008Z,18.89
2023-05-15T20:56:25.824Z,18.87
2023-05-15T20:59:11.734Z,18.81
2023-05-15T21:01:57.543Z,18.86
2023-05-15T21:04:44.142Z,18.88
2023-05-15T21:07:30.045Z,18.85
2023-05-15T21:10:15.990Z,18.85
2023-05-15T21:13:02.199Z,18.84
2023-05-15T21:15:48.108Z,18.82
2023-05-15T21:18:34.359Z,18.78
2023-05-15T21:21:20.739Z,18.80
2023-05-15T21:24:07.250Z,18.78
2023-05-15T21:26:53.458Z,18.73
2023-05-15T21:29:39.615Z,18.72
2023-05-15T21:32:25.662Z,18.72
2023-05-15T21:35:11.913Z,18.71
2023-05-15T21:37:58.023Z,18.65
2023-05-15T21:40:57.934Z,18.61
2023-05-15T21:43:43.912Z,18.63
2023-05-15T21:46:29.639Z,18.61
2023-05-15T21:49:48.095Z,18.59
2023-05-15T21:53:45.439Z,18.55
2023-05-15T21:56:31.960Z,18.53
2023-05-15T21:59:17.854Z,18.50
2023-05-15T22:02:03.993Z,18.46
2023-05-15T22:04:49.800Z,18.44
2023-05-15T22:07:35.662Z,18.42
2023-05-15T22:10:22.469Z,18.38
2023-05-15T22:13:09.197Z,18.29
2023-05-15T22:15:55.175Z,18.32
2023-05-15T22:18:45.047Z,18.31
2023-05-15T22:21:32.109Z,18.29
2023-05-15T22:24:18.011Z,18.27
2023-05-15T22:27:04.037Z,18.24
2023-05-15T22:29:50.014Z,18.19
2023-05-15T22:32:36.157Z,18.18
2023-05-15T22:35:22.293Z,18.14
2023-05-15T22:38:08.321Z,18.09
2023-05-15T22:40:54.116Z,18.06
2023-05-15T22:43:40.096Z,18.03
2023-05-15T22:46:25.785Z,18.04
2023-05-15T22:49:24.373Z,17.97
2023-05-15T22:52:12.948Z,17.95
2023-05-15T22:54:59.965Z,17.96
2023-05-15T22:57:45.827Z,17.93
2023-05-15T23:00:32.373Z,17.94
2023-05-15T23:03:18.578Z,17.91
2023-05-15T23:06:05.004Z,17.91
2023-05-15T23:08:51.409Z,17.89
2023-05-15T23:11:37.957Z,17.89
2023-05-15T23:14:24.403Z,17.91
2023-05-15T23:17:10.497Z,17.92
2023-05-15T23:19:56.548Z,17.90
2023-05-15T23:22:42.412Z,17.90
2023-05-15T23:25:28.412Z,17.92
2023-05-15T23:28:14.312Z,17.92
2023-05-15T23:31:00.072Z,17.89
2023-05-15T23:33:45.713Z,17.91
2023-05-15T23:36:31.454Z,17.89
2023-05-15T23:39:17.250Z,17.90
2023-05-15T23:42:03.383Z,17.92
2023-05-15T23:44:50.066Z,17.91
2023-05-15T23:47:36.603Z,17.91
2023-05-15T23:50:23.201Z,17.87
2023-05-15T23:53:09.304Z,17.89
2023-05-15T23:55:55.500Z,17.88
2023-05-15T23:58:41.773Z,17.89
